Terminal Aerodrome Forecast
Issued by NWS

Home | Current Version | Previous Version | Text Only | Print | Product List | Glossary On
Versions: 1 2 3 4 5 6 7 8 9 10 11 12 13 14 15 16
000
FTUS45 KGJT 211843 AAA
TAFASE
TAF AMD
KASE 211843Z 2119/2218 VRB03KT P6SM SCT250
      TEMPO 2119/2122 18015G25KT
     FM220200 14005KT P6SM VCSH BKN100 WS020/23035KT
     FM220500 12009KT P6SM VCSH BKN090 WS020/23045KT
     FM221000 15010G26KT P6SM VCSH BKN040 WS020/24040KT
     FM221200 22011G26KT P6SM BKN040
     FM221400 20007KT 6SM BR BKN035=

USA.gov is the U.S. government's official web portal to all federal, state and local government web resources and services.